Headless Cross, United Kingdom
Current Conditions -  °F | °C
As of 3:50 PM on Monday 29 Dec 2014 (Local Time) from EGBB Reporting Station
Broken Clouds Broken Clouds  
Wind Chill: 39°   Ceiling: 2700
Heat Index: 39°   Visibility: 6mi
Dew Point: 34°   Wind: 3mph
Humidity: 81%   Direction: 250°WSW
Pressure: 30.74"   Gusts: NA
Location:  52.31°N, 1.94°W
Report Text: EGBB 291550Z 25003KT 9999 BKN027 04/01 Q1041
Loading
Personal Weather Stations






























Interactive Weather Map New forecast layout! Learn more

10-Day Weather Forecast

Advertisements
Track Severe Weather on mobile